sensor_id;sensor_type;location;lat;lon;timestamp;temperature;humidity
11656;DHT22;5884;43.618;1.438;2023-03-05T05:46:51;2.20;99.90
11656;DHT22;5884;43.618;1.438;2023-03-05T05:49:19;2.20;99.90
11656;DHT22;5884;43.618;1.438;2023-03-05T05:51:46;2.20;99.90
11656;DHT22;5884;43.618;1.438;2023-03-05T05:54:14;2.20;99.90
11656;DHT22;5884;43.618;1.438;2023-03-05T05:56:41;2.20;99.90
11656;DHT22;5884;43.618;1.438;2023-03-05T05:59:09;2.10;99.90
11656;DHT22;5884;43.618;1.438;2023-03-05T06:01:36;2.10;99.90
11656;DHT22;5884;43.618;1.438;2023-03-05T06:04:05;2.10;99.90
11656;DHT22;5884;43.618;1.438;2023-03-05T06:06:33;2.00;99.90
11656;DHT22;5884;43.618;1.438;2023-03-05T06:09:00;2.10;99.90
11656;DHT22;5884;43.618;1.438;2023-03-05T06:11:28;2.00;99.90
11656;DHT22;5884;43.618;1.438;2023-03-05T06:13:55;2.00;99.90
11656;DHT22;5884;43.618;1.438;2023-03-05T06:16:23;2.00;99.90
11656;DHT22;5884;43.618;1.438;2023-03-05T06:18:51;2.00;99.90
11656;DHT22;5884;43.618;1.438;2023-03-05T06:21:21;2.00;99.90
11656;DHT22;5884;43.618;1.438;2023-03-05T06:23:49;2.00;99.90
11656;DHT22;5884;43.618;1.438;2023-03-05T06:26:18;2.00;99.90
11656;DHT22;5884;43.618;1.438;2023-03-05T06:28:46;2.00;99.90
11656;DHT22;5884;43.618;1.438;2023-03-05T06:31:15;1.90;99.90
11656;DHT22;5884;43.618;1.438;2023-03-05T06:33:47;2.00;99.90
11656;DHT22;5884;43.618;1.438;2023-03-05T06:36:15;2.00;99.90
11656;DHT22;5884;43.618;1.438;2023-03-05T06:38:45;2.00;99.90
11656;DHT22;5884;43.618;1.438;2023-03-05T06:41:16;2.00;99.90
11656;DHT22;5884;43.618;1.438;2023-03-05T06:43:45;2.00;99.90
11656;DHT22;5884;43.618;1.438;2023-03-05T06:46:15;2.00;99.90
11656;DHT22;5884;43.618;1.438;2023-03-05T06:48:43;2.00;99.90
11656;DHT22;5884;43.618;1.438;2023-03-05T06:51:13;2.00;99.90
11656;DHT22;5884;43.618;1.438;2023-03-05T06:53:41;2.10;99.90
11656;DHT22;5884;43.618;1.438;2023-03-05T06:56:10;2.10;99.90
11656;DHT22;5884;43.618;1.438;2023-03-05T06:58:38;2.10;99.90
11656;DHT22;5884;43.618;1.438;2023-03-05T07:01:06;2.20;99.90
11656;DHT22;5884;43.618;1.438;2023-03-05T07:03:34;2.20;99.90
11656;DHT22;5884;43.618;1.438;2023-03-05T07:06:03;2.30;99.90
11656;DHT22;5884;43.618;1.438;2023-03-05T07:08:31;2.30;99.90
11656;DHT22;5884;43.618;1.438;2023-03-05T07:10:59;2.30;99.90
11656;DHT22;5884;43.618;1.438;2023-03-05T07:13:28;2.30;99.90
11656;DHT22;5884;43.618;1.438;2023-03-05T07:15:56;2.30;99.90
11656;DHT22;5884;43.618;1.438;2023-03-05T07:18:23;2.40;99.90
11656;DHT22;5884;43.618;1.438;2023-03-05T07:20:50;2.40;99.90
11656;DHT22;5884;43.618;1.438;2023-03-05T07:23:17;2.50;99.90
11656;DHT22;5884;43.618;1.438;2023-03-05T07:25:45;2.60;99.90
11656;DHT22;5884;43.618;1.438;2023-03-05T07:28:12;2.60;99.90
11656;DHT22;5884;43.618;1.438;2023-03-05T07:30:40;2.70;99.90
11656;DHT22;5884;43.618;1.438;2023-03-05T07:33:08;2.70;99.90
11656;DHT22;5884;43.618;1.438;2023-03-05T07:35:39;2.80;99.90
11656;DHT22;5884;43.618;1.438;2023-03-05T07:38:06;2.90;99.90
11656;DHT22;5884;43.618;1.438;2023-03-05T07:40:34;3.00;99.90
11656;DHT22;5884;43.618;1.438;2023-03-05T07:43:01;3.10;99.90
11656;DHT22;5884;43.618;1.438;2023-03-05T07:45:28;3.10;99.90
11656;DHT22;5884;43.618;1.438;2023-03-05T07:47:58;3.20;99.90
11656;DHT22;5884;43.618;1.438;2023-03-05T07:50:25;3.20;99.90
11656;DHT22;5884;43.618;1.438;2023-03-05T07:52:52;3.30;99.90
11656;DHT22;5884;43.618;1.438;2023-03-05T07:55:19;3.40;99.90
11656;DHT22;5884;43.618;1.438;2023-03-05T07:57:47;3.50;99.90
11656;DHT22;5884;43.618;1.438;2023-03-05T08:00:15;3.50;99.90
11656;DHT22;5884;43.618;1.438;2023-03-05T08:02:45;3.60;99.90
11656;DHT22;5884;43.618;1.438;2023-03-05T08:05:14;3.70;99.90
11656;DHT22;5884;43.618;1.438;2023-03-05T08:07:41;3.70;99.90
11656;DHT22;5884;43.618;1.438;2023-03-05T08:10:09;3.80;99.90
11656;DHT22;5884;43.618;1.438;2023-03-05T08:12:37;3.80;99.90
11656;DHT22;5884;43.618;1.438;2023-03-05T08:15:05;3.90;99.90
11656;DHT22;5884;43.618;1.438;2023-03-05T08:17:33;4.00;99.90
11656;DHT22;5884;43.618;1.438;2023-03-05T08:20:00;4.10;99.90
11656;DHT22;5884;43.618;1.438;2023-03-05T08:22:32;4.20;99.90
11656;DHT22;5884;43.618;1.438;2023-03-05T08:25:00;4.30;99.90
11656;DHT22;5884;43.618;1.438;2023-03-05T08:27:28;4.30;99.90
11656;DHT22;5884;43.618;1.438;2023-03-05T08:29:55;4.40;99.90
11656;DHT22;5884;43.618;1.438;2023-03-05T08:32:22;4.50;99.90
11656;DHT22;5884;43.618;1.438;2023-03-05T08:34:50;4.50;99.90
11656;DHT22;5884;43.618;1.438;2023-03-05T08:37:21;4.60;99.90
11656;DHT22;5884;43.618;1.438;2023-03-05T08:39:50;4.70;99.90
11656;DHT22;5884;43.618;1.438;2023-03-05T08:42:17;4.80;99.90
11656;DHT22;5884;43.618;1.438;2023-03-05T08:44:45;4.90;99.90
11656;DHT22;5884;43.618;1.438;2023-03-05T08:47:12;4.90;99.90
11656;DHT22;5884;43.618;1.438;2023-03-05T08:49:39;4.90;99.90
11656;DHT22;5884;43.618;1.438;2023-03-05T08:52:06;5.00;99.90
11656;DHT22;5884;43.618;1.438;2023-03-05T08:54:35;5.10;99.90
11656;DHT22;5884;43.618;1.438;2023-03-05T08:57:04;5.20;99.90
11656;DHT22;5884;43.618;1.438;2023-03-05T08:59:32;5.20;99.90
11656;DHT22;5884;43.618;1.438;2023-03-05T09:02:00;5.30;99.90
11656;DHT22;5884;43.618;1.438;2023-03-05T09:04:27;5.30;99.90
11656;DHT22;5884;43.618;1.438;2023-03-05T09:06:56;5.30;99.90
11656;DHT22;5884;43.618;1.438;2023-03-05T09:09:23;5.30;99.90
11656;DHT22;5884;43.618;1.438;2023-03-05T09:11:51;5.40;99.90
11656;DHT22;5884;43.618;1.438;2023-03-05T09:14:20;5.60;99.90
11656;DHT22;5884;43.618;1.438;2023-03-05T09:16:47;5.70;99.90
11656;DHT22;5884;43.618;1.438;2023-03-05T09:19:14;5.80;99.90
11656;DHT22;5884;43.618;1.438;2023-03-05T09:21:41;5.90;99.90
11656;DHT22;5884;43.618;1.438;2023-03-05T09:24:09;6.00;99.90
11656;DHT22;5884;43.618;1.438;2023-03-05T09:26:36;6.20;99.90
11656;DHT22;5884;43.618;1.438;2023-03-05T09:29:05;6.30;99.90
11656;DHT22;5884;43.618;1.438;2023-03-05T09:31:35;6.40;99.90
11656;DHT22;5884;43.618;1.438;2023-03-05T09:34:03;6.50;99.90
11656;DHT22;5884;43.618;1.438;2023-03-05T09:36:31;6.50;99.90
11656;DHT22;5884;43.618;1.438;2023-03-05T09:38:59;6.50;99.90
11656;DHT22;5884;43.618;1.438;2023-03-05T09:41:32;6.50;99.90
11656;DHT22;5884;43.618;1.438;2023-03-05T09:44:10;6.60;99.90
11656;DHT22;5884;43.618;1.438;2023-03-05T09:46:50;6.70;99.90
11656;DHT22;5884;43.618;1.438;2023-03-05T09:49:29;6.80;99.90
11656;DHT22;5884;43.618;1.438;2023-03-05T09:52:04;6.90;99.90
11656;DHT22;5884;43.618;1.438;2023-03-05T09:54:37;7.00;99.90
11656;DHT22;5884;43.618;1.438;2023-03-05T09:57:12;7.10;99.90
11656;DHT22;5884;43.618;1.438;2023-03-05T09:59:46;7.30;99.90
11656;DHT22;5884;43.618;1.438;2023-03-05T10:02:20;7.30;99.90
11656;DHT22;5884;43.618;1.438;2023-03-05T10:04:53;7.40;99.90
11656;DHT22;5884;43.618;1.438;2023-03-05T10:07:26;7.50;99.90
11656;DHT22;5884;43.618;1.438;2023-03-05T10:09:58;7.50;99.90
11656;DHT22;5884;43.618;1.438;2023-03-05T10:12:35;7.60;99.90
11656;DHT22;5884;43.618;1.438;2023-03-05T10:15:11;7.60;99.90
11656;DHT22;5884;43.618;1.438;2023-03-05T10:17:56;7.60;99.90
11656;DHT22;5884;43.618;1.438;2023-03-05T10:20:40;7.80;99.90
11656;DHT22;5884;43.618;1.438;2023-03-05T10:23:39;7.80;99.90
11656;DHT22;5884;43.618;1.438;2023-03-05T10:26:26;7.90;99.90
11656;DHT22;5884;43.618;1.438;2023-03-05T10:29:11;8.00;99.90
11656;DHT22;5884;43.618;1.438;2023-03-05T10:31:57;8.00;99.90
11656;DHT22;5884;43.618;1.438;2023-03-05T10:34:43;8.20;99.90
11656;DHT22;5884;43.618;1.438;2023-03-05T10:37:48;8.30;99.90
11656;DHT22;5884;43.618;1.438;2023-03-05T10:40:26;8.40;99.90
11656;DHT22;5884;43.618;1.438;2023-03-05T10:43:03;8.40;99.90
11656;DHT22;5884;43.618;1.438;2023-03-05T10:45:38;8.50;99.90
11656;DHT22;5884;43.618;1.438;2023-03-05T10:48:11;8.70;99.90
11656;DHT22;5884;43.618;1.438;2023-03-05T10:50:47;8.90;99.90
11656;DHT22;5884;43.618;1.438;2023-03-05T10:53:21;8.90;99.90
11656;DHT22;5884;43.618;1.438;2023-03-05T10:55:51;8.80;99.90
11656;DHT22;5884;43.618;1.438;2023-03-05T10:58:22;9.00;99.90
11656;DHT22;5884;43.618;1.438;2023-03-05T11:01:01;9.10;99.90
11656;DHT22;5884;43.618;1.438;2023-03-05T11:03:47;9.10;99.90
11656;DHT22;5884;43.618;1.438;2023-03-05T11:06:32;9.20;99.90
11656;DHT22;5884;43.618;1.438;2023-03-05T11:09:20;9.20;99.90
11656;DHT22;5884;43.618;1.438;2023-03-05T11:12:05;9.30;99.90
11656;DHT22;5884;43.618;1.438;2023-03-05T11:14:38;9.40;99.90
11656;DHT22;5884;43.618;1.438;2023-03-05T11:17:28;9.40;99.90
11656;DHT22;5884;43.618;1.438;2023-03-05T11:20:21;9.50;99.90
11656;DHT22;5884;43.618;1.438;2023-03-05T11:23:04;9.70;99.90
11656;DHT22;5884;43.618;1.438;2023-03-05T11:25:52;9.60;99.90
11656;DHT22;5884;43.618;1.438;2023-03-05T11:28:25;9.70;99.90
11656;DHT22;5884;43.618;1.438;2023-03-05T11:30:57;9.70;99.90
11656;DHT22;5884;43.618;1.438;2023-03-05T11:33:26;9.70;99.90
11656;DHT22;5884;43.618;1.438;2023-03-05T11:36:10;9.80;99.90
11656;DHT22;5884;43.618;1.438;2023-03-05T11:38:53;9.90;99.90
11656;DHT22;5884;43.618;1.438;2023-03-05T11:41:31;9.90;99.90
11656;DHT22;5884;43.618;1.438;2023-03-05T11:44:03;10.00;99.90
11656;DHT22;5884;43.618;1.438;2023-03-05T11:46:39;10.00;99.90
11656;DHT22;5884;43.618;1.438;2023-03-05T11:49:12;10.10;99.90
11656;DHT22;5884;43.618;1.438;2023-03-05T11:51:47;10.10;99.90
11656;DHT22;5884;43.618;1.438;2023-03-05T11:54:21;10.00;99.90
11656;DHT22;5884;43.618;1.438;2023-03-05T11:56:52;10.10;99.90
11656;DHT22;5884;43.618;1.438;2023-03-05T11:59:22;10.40;99.90
11656;DHT22;5884;43.618;1.438;2023-03-05T12:01:55;10.60;99.90
11656;DHT22;5884;43.618;1.438;2023-03-05T12:04:23;10.60;99.90
11656;DHT22;5884;43.618;1.438;2023-03-05T12:06:53;10.60;99.90
11656;DHT22;5884;43.618;1.438;2023-03-05T12:09:36;10.60;99.90
11656;DHT22;5884;43.618;1.438;2023-03-05T12:12:15;10.60;99.90
11656;DHT22;5884;43.618;1.438;2023-03-05T12:14:51;10.60;99.90
11656;DHT22;5884;43.618;1.438;2023-03-05T12:17:26;10.70;99.90
11656;DHT22;5884;43.618;1.438;2023-03-05T12:20:02;10.70;99.90
11656;DHT22;5884;43.618;1.438;2023-03-05T12:22:35;10.70;99.90
11656;DHT22;5884;43.618;1.438;2023-03-05T12:25:25;10.70;99.90
11656;DHT22;5884;43.618;1.438;2023-03-05T12:27:54;10.90;99.90
11656;DHT22;5884;43.618;1.438;2023-03-05T12:30:54;11.00;99.90
11656;DHT22;5884;43.618;1.438;2023-03-05T12:33:34;10.90;99.90
11656;DHT22;5884;43.618;1.438;2023-03-05T12:36:32;11.00;99.90
11656;DHT22;5884;43.618;1.438;2023-03-05T12:42:45;11.20;99.90
11656;DHT22;5884;43.618;1.438;2023-03-05T12:45:33;11.10;99.90
11656;DHT22;5884;43.618;1.438;2023-03-05T12:48:39;11.20;99.90
11656;DHT22;5884;43.618;1.438;2023-03-05T12:51:27;11.30;99.90
11656;DHT22;5884;43.618;1.438;2023-03-05T12:56:49;11.50;99.90
11656;DHT22;5884;43.618;1.438;2023-03-05T12:59:21;11.60;99.90
11656;DHT22;5884;43.618;1.438;2023-03-05T13:01:52;11.60;99.90
11656;DHT22;5884;43.618;1.438;2023-03-05T13:04:24;11.60;99.90
11656;DHT22;5884;43.618;1.438;2023-03-05T13:07:01;11.70;99.90
11656;DHT22;5884;43.618;1.438;2023-03-05T13:09:31;11.70;99.90
11656;DHT22;5884;43.618;1.438;2023-03-05T13:12:02;11.70;99.90
11656;DHT22;5884;43.618;1.438;2023-03-05T13:14:38;11.70;99.90
11656;DHT22;5884;43.618;1.438;2023-03-05T13:17:40;11.90;99.90
11656;DHT22;5884;43.618;1.438;2023-03-05T13:20:33;11.80;99.90
11656;DHT22;5884;43.618;1.438;2023-03-05T13:23:20;11.70;99.90
11656;DHT22;5884;43.618;1.438;2023-03-05T13:25:57;11.70;99.90
11656;DHT22;5884;43.618;1.438;2023-03-05T13:28:26;11.80;99.90
11656;DHT22;5884;43.618;1.438;2023-03-05T13:30:57;11.90;99.90
11656;DHT22;5884;43.618;1.438;2023-03-05T13:33:27;12.00;99.90
11656;DHT22;5884;43.618;1.438;2023-03-05T13:35:55;11.80;99.90
11656;DHT22;5884;43.618;1.438;2023-03-05T13:38:26;11.80;99.90
11656;DHT22;5884;43.618;1.438;2023-03-05T13:41:05;11.90;99.90
11656;DHT22;5884;43.618;1.438;2023-03-05T13:43:41;12.10;99.90
11656;DHT22;5884;43.618;1.438;2023-03-05T13:46:10;12.10;99.90
11656;DHT22;5884;43.618;1.438;2023-03-05T13:48:38;12.10;99.90
11656;DHT22;5884;43.618;1.438;2023-03-05T13:51:05;12.30;99.90
11656;DHT22;5884;43.618;1.438;2023-03-05T13:53:34;12.20;99.90
11656;DHT22;5884;43.618;1.438;2023-03-05T13:56:03;12.30;99.90
11656;DHT22;5884;43.618;1.438;2023-03-05T13:58:43;12.30;99.90
11656;DHT22;5884;43.618;1.438;2023-03-05T14:01:25;12.40;99.90
11656;DHT22;5884;43.618;1.438;2023-03-05T14:03:56;12.40;99.90
11656;DHT22;5884;43.618;1.438;2023-03-05T14:06:36;12.30;99.90
11656;DHT22;5884;43.618;1.438;2023-03-05T14:09:17;12.50;99.90
11656;DHT22;5884;43.618;1.438;2023-03-05T14:12:02;12.50;99.90
11656;DHT22;5884;43.618;1.438;2023-03-05T14:14:36;12.50;99.90
11656;DHT22;5884;43.618;1.438;2023-03-05T14:17:27;12.50;99.90
11656;DHT22;5884;43.618;1.438;2023-03-05T14:20:25;12.60;99.90
11656;DHT22;5884;43.618;1.438;2023-03-05T14:22:54;12.60;99.90
11656;DHT22;5884;43.618;1.438;2023-03-05T14:25:32;12.70;99.90
11656;DHT22;5884;43.618;1.438;2023-03-05T14:28:03;12.60;99.90
11656;DHT22;5884;43.618;1.438;2023-03-05T14:30:31;12.70;99.90
11656;DHT22;5884;43.618;1.438;2023-03-05T14:33:02;12.70;99.90
11656;DHT22;5884;43.618;1.438;2023-03-05T14:35:30;12.60;99.90
11656;DHT22;5884;43.618;1.438;2023-03-05T14:37:57;12.80;99.90
11656;DHT22;5884;43.618;1.438;2023-03-05T14:40:28;12.90;99.90
11656;DHT22;5884;43.618;1.438;2023-03-05T14:42:57;12.80;99.90
11656;DHT22;5884;43.618;1.438;2023-03-05T14:45:26;12.80;99.90
11656;DHT22;5884;43.618;1.438;2023-03-05T14:47:56;12.70;99.90
11656;DHT22;5884;43.618;1.438;2023-03-05T14:50:27;12.60;99.90
11656;DHT22;5884;43.618;1.438;2023-03-05T14:52:57;12.70;99.90
11656;DHT22;5884;43.618;1.438;2023-03-05T14:55:28;12.70;99.90
11656;DHT22;5884;43.618;1.438;2023-03-05T14:58:00;12.60;99.90
11656;DHT22;5884;43.618;1.438;2023-03-05T15:00:29;12.70;99.90
11656;DHT22;5884;43.618;1.438;2023-03-05T15:02:57;12.70;99.90
11656;DHT22;5884;43.618;1.438;2023-03-05T15:05:26;12.60;99.90
11656;DHT22;5884;43.618;1.438;2023-03-05T15:07:53;12.60;99.90
11656;DHT22;5884;43.618;1.438;2023-03-05T15:10:23;12.60;99.90
11656;DHT22;5884;43.618;1.438;2023-03-05T15:12:51;12.60;99.90
11656;DHT22;5884;43.618;1.438;2023-03-05T15:15:20;12.50;99.90
11656;DHT22;5884;43.618;1.438;2023-03-05T15:17:49;12.70;99.90
11656;DHT22;5884;43.618;1.438;2023-03-05T15:20:21;12.60;99.90
11656;DHT22;5884;43.618;1.438;2023-03-05T15:22:51;12.50;99.90
11656;DHT22;5884;43.618;1.438;2023-03-05T15:25:19;12.50;99.90
11656;DHT22;5884;43.618;1.438;2023-03-05T15:27:47;12.50;99.90
11656;DHT22;5884;43.618;1.438;2023-03-05T15:30:20;12.60;99.90
11656;DHT22;5884;43.618;1.438;2023-03-05T15:32:49;12.60;99.90
11656;DHT22;5884;43.618;1.438;2023-03-05T15:35:20;12.70;99.90
11656;DHT22;5884;43.618;1.438;2023-03-05T15:37:47;12.50;99.90
11656;DHT22;5884;43.618;1.438;2023-03-05T15:40:16;12.50;99.90
11656;DHT22;5884;43.618;1.438;2023-03-05T15:42:45;12.60;99.90
11656;DHT22;5884;43.618;1.438;2023-03-05T15:45:12;12.50;99.90
11656;DHT22;5884;43.618;1.438;2023-03-05T15:47:40;12.50;99.90
11656;DHT22;5884;43.618;1.438;2023-03-05T15:50:08;12.50;99.90
11656;DHT22;5884;43.618;1.438;2023-03-05T15:52:36;12.40;99.90
11656;DHT22;5884;43.618;1.438;2023-03-05T15:55:04;12.50;99.90
11656;DHT22;5884;43.618;1.438;2023-03-05T15:57:35;12.40;99.90
11656;DHT22;5884;43.618;1.438;2023-03-05T16:00:08;12.40;99.90
11656;DHT22;5884;43.618;1.438;2023-03-05T16:02:37;12.40;99.90
11656;DHT22;5884;43.618;1.438;2023-03-05T16:05:05;12.30;99.90
11656;DHT22;5884;43.618;1.438;2023-03-05T16:07:35;12.30;99.90
11656;DHT22;5884;43.618;1.438;2023-03-05T16:10:05;12.30;99.90
11656;DHT22;5884;43.618;1.438;2023-03-05T16:12:36;12.30;99.90
11656;DHT22;5884;43.618;1.438;2023-03-05T16:15:09;12.20;99.90
11656;DHT22;5884;43.618;1.438;2023-03-05T16:17:37;12.30;99.90
11656;DHT22;5884;43.618;1.438;2023-03-05T16:20:07;12.30;99.90
11656;DHT22;5884;43.618;1.438;2023-03-05T16:22:36;12.30;99.90
11656;DHT22;5884;43.618;1.438;2023-03-05T16:25:04;12.20;99.90
11656;DHT22;5884;43.618;1.438;2023-03-05T16:27:31;12.20;99.90
11656;DHT22;5884;43.618;1.438;2023-03-05T16:30:00;12.20;99.90
11656;DHT22;5884;43.618;1.438;2023-03-05T16:32:27;12.10;99.90
11656;DHT22;5884;43.618;1.438;2023-03-05T16:34:56;12.00;99.90
11656;DHT22;5884;43.618;1.438;2023-03-05T16:37:24;11.90;99.90
11656;DHT22;5884;43.618;1.438;2023-03-05T16:39:51;11.80;99.90
11656;DHT22;5884;43.618;1.438;2023-03-05T16:42:18;11.80;99.90
11656;DHT22;5884;43.618;1.438;2023-03-05T16:44:46;11.70;99.90
11656;DHT22;5884;43.618;1.438;2023-03-05T16:47:15;11.80;99.90
11656;DHT22;5884;43.618;1.438;2023-03-05T16:49:43;11.70;99.90
11656;DHT22;5884;43.618;1.438;2023-03-05T16:52:10;11.70;99.90
11656;DHT22;5884;43.618;1.438;2023-03-05T16:54:37;11.70;99.90
11656;DHT22;5884;43.618;1.438;2023-03-05T16:57:06;11.60;99.90
11656;DHT22;5884;43.618;1.438;2023-03-05T16:59:33;11.50;99.90
11656;DHT22;5884;43.618;1.438;2023-03-05T17:02:02;11.40;99.90
11656;DHT22;5884;43.618;1.438;2023-03-05T17:04:31;11.40;99.90
11656;DHT22;5884;43.618;1.438;2023-03-05T17:06:58;11.30;99.90
11656;DHT22;5884;43.618;1.438;2023-03-05T17:09:25;11.20;99.90
11656;DHT22;5884;43.618;1.438;2023-03-05T17:11:53;11.20;99.90
11656;DHT22;5884;43.618;1.438;2023-03-05T17:14:21;11.20;99.90
11656;DHT22;5884;43.618;1.438;2023-03-05T17:16:48;11.10;99.90
11656;DHT22;5884;43.618;1.438;2023-03-05T17:19:15;11.00;99.90
11656;DHT22;5884;43.618;1.438;2023-03-05T17:21:44;11.00;99.90
11656;DHT22;5884;43.618;1.438;2023-03-05T17:24:15;11.00;99.90
11656;DHT22;5884;43.618;1.438;2023-03-05T17:26:42;10.90;99.90
11656;DHT22;5884;43.618;1.438;2023-03-05T17:29:11;10.80;99.90
11656;DHT22;5884;43.618;1.438;2023-03-05T17:31:38;10.70;99.90
11656;DHT22;5884;43.618;1.438;2023-03-05T17:34:06;10.70;99.90
11656;DHT22;5884;43.618;1.438;2023-03-05T17:36:33;10.70;99.90
11656;DHT22;5884;43.618;1.438;2023-03-05T17:39:02;10.60;99.90
11656;DHT22;5884;43.618;1.438;2023-03-05T17:41:29;10.40;99.90
11656;DHT22;5884;43.618;1.438;2023-03-05T17:43:56;10.40;99.90
11656;DHT22;5884;43.618;1.438;2023-03-05T17:46:23;10.30;99.90
11656;DHT22;5884;43.618;1.438;2023-03-05T17:48:51;10.20;99.90
11656;DHT22;5884;43.618;1.438;2023-03-05T17:51:18;10.20;99.90
11656;DHT22;5884;43.618;1.438;2023-03-05T17:53:45;10.10;99.90
11656;DHT22;5884;43.618;1.438;2023-03-05T17:56:14;10.00;99.90
11656;DHT22;5884;43.618;1.438;2023-03-05T17:58:45;10.00;99.90
11656;DHT22;5884;43.618;1.438;2023-03-05T18:01:21;9.90;99.90
11656;DHT22;5884;43.618;1.438;2023-03-05T18:03:49;9.70;99.90
11656;DHT22;5884;43.618;1.438;2023-03-05T18:06:17;9.60;99.90
11656;DHT22;5884;43.618;1.438;2023-03-05T18:08:44;9.60;99.90
11656;DHT22;5884;43.618;1.438;2023-03-05T18:11:11;9.50;99.90
11656;DHT22;5884;43.618;1.438;2023-03-05T18:13:42;9.50;99.90
11656;DHT22;5884;43.618;1.438;2023-03-05T18:16:09;9.50;99.90
11656;DHT22;5884;43.618;1.438;2023-03-05T18:18:38;9.40;99.90
11656;DHT22;5884;43.618;1.438;2023-03-05T18:21:06;9.30;99.90
11656;DHT22;5884;43.618;1.438;2023-03-05T18:23:33;9.20;99.90
11656;DHT22;5884;43.618;1.438;2023-03-05T18:26:01;9.30;99.90
11656;DHT22;5884;43.618;1.438;2023-03-05T18:28:29;9.30;99.90
11656;DHT22;5884;43.618;1.438;2023-03-05T18:30:57;9.30;99.90
11656;DHT22;5884;43.618;1.438;2023-03-05T18:33:25;9.30;99.90
11656;DHT22;5884;43.618;1.438;2023-03-05T18:35:52;9.30;99.90
11656;DHT22;5884;43.618;1.438;2023-03-05T18:38:21;9.20;99.90
11656;DHT22;5884;43.618;1.438;2023-03-05T18:40:51;9.00;99.90
11656;DHT22;5884;43.618;1.438;2023-03-05T18:43:20;8.90;99.90
11656;DHT22;5884;43.618;1.438;2023-03-05T18:45:49;8.80;99.90
11656;DHT22;5884;43.618;1.438;2023-03-05T18:48:19;8.90;99.90
11656;DHT22;5884;43.618;1.438;2023-03-05T18:50:49;8.90;99.90
11656;DHT22;5884;43.618;1.438;2023-03-05T18:53:17;8.80;99.90
11656;DHT22;5884;43.618;1.438;2023-03-05T18:55:45;8.70;99.90
11656;DHT22;5884;43.618;1.438;2023-03-05T18:58:12;8.80;99.90
11656;DHT22;5884;43.618;1.438;2023-03-05T19:00:40;8.70;99.90
11656;DHT22;5884;43.618;1.438;2023-03-05T19:03:10;8.60;99.90
11656;DHT22;5884;43.618;1.438;2023-03-05T19:05:39;8.50;99.90
11656;DHT22;5884;43.618;1.438;2023-03-05T19:08:07;8.30;99.90
11656;DHT22;5884;43.618;1.438;2023-03-05T19:10:34;8.30;99.90
11656;DHT22;5884;43.618;1.438;2023-03-05T19:13:35;8.20;99.90
11656;DHT22;5884;43.618;1.438;2023-03-05T19:16:06;8.10;99.90
11656;DHT22;5884;43.618;1.438;2023-03-05T19:19:15;8.00;99.90
11656;DHT22;5884;43.618;1.438;2023-03-05T19:21:46;8.00;99.90
11656;DHT22;5884;43.618;1.438;2023-03-05T19:24:15;7.90;99.90
11656;DHT22;5884;43.618;1.438;2023-03-05T19:26:43;7.80;99.90
11656;DHT22;5884;43.618;1.438;2023-03-05T19:29:13;7.80;99.90
11656;DHT22;5884;43.618;1.438;2023-03-05T19:31:41;7.70;99.90
11656;DHT22;5884;43.618;1.438;2023-03-05T19:34:08;7.60;99.90
11656;DHT22;5884;43.618;1.438;2023-03-05T19:36:35;7.60;99.90
11656;DHT22;5884;43.618;1.438;2023-03-05T19:39:05;7.60;99.90
11656;DHT22;5884;43.618;1.438;2023-03-05T19:41:33;7.50;99.90
11656;DHT22;5884;43.618;1.438;2023-03-05T19:44:01;7.40;99.90
11656;DHT22;5884;43.618;1.438;2023-03-05T19:46:29;7.40;99.90
11656;DHT22;5884;43.618;1.438;2023-03-05T19:48:56;7.40;99.90
11656;DHT22;5884;43.618;1.438;2023-03-05T19:51:24;7.40;99.90
11656;DHT22;5884;43.618;1.438;2023-03-05T19:53:53;7.30;99.90
11656;DHT22;5884;43.618;1.438;2023-03-05T19:56:22;7.30;99.90
11656;DHT22;5884;43.618;1.438;2023-03-05T19:58:49;7.30;99.90
11656;DHT22;5884;43.618;1.438;2023-03-05T20:01:18;7.30;99.90
11656;DHT22;5884;43.618;1.438;2023-03-05T20:03:47;7.20;99.90
11656;DHT22;5884;43.618;1.438;2023-03-05T20:06:16;7.10;99.90
11656;DHT22;5884;43.618;1.438;2023-03-05T20:08:44;7.10;99.90
11656;DHT22;5884;43.618;1.438;2023-03-05T20:11:13;7.00;99.90
11656;DHT22;5884;43.618;1.438;2023-03-05T20:13:43;7.00;99.90
11656;DHT22;5884;43.618;1.438;2023-03-05T20:16:15;6.90;99.90
11656;DHT22;5884;43.618;1.438;2023-03-05T20:18:44;6.90;99.90
11656;DHT22;5884;43.618;1.438;2023-03-05T20:21:14;6.90;99.90
11656;DHT22;5884;43.618;1.438;2023-03-05T20:23:46;6.80;99.90
11656;DHT22;5884;43.618;1.438;2023-03-05T20:26:13;6.80;99.90
11656;DHT22;5884;43.618;1.438;2023-03-05T20:28:40;6.70;99.90
11656;DHT22;5884;43.618;1.438;2023-03-05T20:31:09;6.70;99.90
11656;DHT22;5884;43.618;1.438;2023-03-05T20:33:36;6.70;99.90
11656;DHT22;5884;43.618;1.438;2023-03-05T20:36:05;6.60;99.90
11656;DHT22;5884;43.618;1.438;2023-03-05T20:38:33;6.50;99.90
11656;DHT22;5884;43.618;1.438;2023-03-05T20:41:02;6.50;99.90
11656;DHT22;5884;43.618;1.438;2023-03-05T20:43:32;6.50;99.90
11656;DHT22;5884;43.618;1.438;2023-03-05T20:46:01;6.50;99.90
11656;DHT22;5884;43.618;1.438;2023-03-05T20:48:32;6.40;99.90
11656;DHT22;5884;43.618;1.438;2023-03-05T20:51:10;6.40;99.90
11656;DHT22;5884;43.618;1.438;2023-03-05T20:53:38;6.50;99.90
11656;DHT22;5884;43.618;1.438;2023-03-05T20:56:06;6.70;99.90
11656;DHT22;5884;43.618;1.438;2023-03-05T20:58:33;6.70;99.90
11656;DHT22;5884;43.618;1.438;2023-03-05T21:01:01;6.60;99.90
11656;DHT22;5884;43.618;1.438;2023-03-05T21:03:29;6.50;99.90
11656;DHT22;5884;43.618;1.438;2023-03-05T21:05:57;6.40;99.90
11656;DHT22;5884;43.618;1.438;2023-03-05T21:08:24;6.40;99.90
11656;DHT22;5884;43.618;1.438;2023-03-05T21:10:51;6.40;99.90
11656;DHT22;5884;43.618;1.438;2023-03-05T21:13:18;6.40;99.90
11656;DHT22;5884;43.618;1.438;2023-03-05T21:15:45;6.30;99.90
11656;DHT22;5884;43.618;1.438;2023-03-05T21:18:13;6.20;99.90
11656;DHT22;5884;43.618;1.438;2023-03-05T21:20:41;6.20;99.90
11656;DHT22;5884;43.618;1.438;2023-03-05T21:23:08;6.10;99.90
11656;DHT22;5884;43.618;1.438;2023-03-05T21:25:36;6.10;99.90
11656;DHT22;5884;43.618;1.438;2023-03-05T21:28:05;6.10;99.90
11656;DHT22;5884;43.618;1.438;2023-03-05T21:30:36;6.10;99.90
11656;DHT22;5884;43.618;1.438;2023-03-05T21:33:05;6.10;99.90
11656;DHT22;5884;43.618;1.438;2023-03-05T21:35:34;6.10;99.90
11656;DHT22;5884;43.618;1.438;2023-03-05T21:38:04;6.10;99.90
11656;DHT22;5884;43.618;1.438;2023-03-05T21:40:35;6.10;99.90
11656;DHT22;5884;43.618;1.438;2023-03-05T21:43:04;6.10;99.90
11656;DHT22;5884;43.618;1.438;2023-03-05T21:45:31;6.00;99.90
11656;DHT22;5884;43.618;1.438;2023-03-05T21:47:58;6.00;99.90
11656;DHT22;5884;43.618;1.438;2023-03-05T21:50:26;6.00;99.90
11656;DHT22;5884;43.618;1.438;2023-03-05T21:52:53;6.00;99.90
11656;DHT22;5884;43.618;1.438;2023-03-05T21:58:58;5.90;99.90
